createdAt,value
2023-05-04T00:02:24.282Z,98137.09
2023-05-04T00:04:53.625Z,98133.69
2023-05-04T00:07:20.464Z,98133.06
2023-05-04T00:09:46.938Z,98126.69
2023-05-04T00:12:13.424Z,98137.38
2023-05-04T00:14:40.050Z,98137.63
2023-05-04T00:17:07.843Z,98140.06
2023-05-04T00:19:34.765Z,98135.81
2023-05-04T00:22:01.608Z,98130.09
2023-05-04T00:24:28.504Z,98125.78
2023-05-04T00:26:55.083Z,98124.69
2023-05-04T00:29:21.825Z,98125.41
2023-05-04T00:31:48.325Z,98127.00
2023-05-04T00:34:15.602Z,98132.94
2023-05-04T00:36:42.738Z,98135.50
2023-05-04T00:39:09.247Z,98126.94
2023-05-04T00:41:35.768Z,98135.16
2023-05-04T00:44:04.274Z,98124.72
2023-05-04T00:46:31.478Z,98128.59
2023-05-04T00:48:59.777Z,98126.75
2023-05-04T00:51:27.152Z,98123.91
2023-05-04T00:53:54.326Z,98136.81
2023-05-04T00:56:23.581Z,98129.34
2023-05-04T00:58:54.238Z,98120.22
2023-05-04T01:01:22.378Z,98126.94
2023-05-04T01:03:53.664Z,98130.78
2023-05-04T01:06:32.566Z,98127.88
2023-05-04T01:09:02.121Z,98129.63
2023-05-04T01:11:39.763Z,98127.91
2023-05-04T01:14:06.903Z,98124.50
2023-05-04T01:16:33.375Z,98124.41
2023-05-04T01:18:59.865Z,98120.13
2023-05-04T01:21:28.754Z,98130.81
2023-05-04T01:23:56.275Z,98123.13
2023-05-04T01:26:32.109Z,98125.59
2023-05-04T01:29:04.382Z,98139.09
2023-05-04T01:31:31.587Z,98130.84
2023-05-04T01:33:58.529Z,98130.81
2023-05-04T01:36:26.174Z,98132.09
2023-05-04T01:38:57.678Z,98132.38
2023-05-04T01:41:24.208Z,98134.31
2023-05-04T01:43:50.886Z,98129.47
2023-05-04T01:46:17.439Z,98136.84
2023-05-04T01:48:43.962Z,98134.59
2023-05-04T01:51:10.471Z,98133.47
2023-05-04T01:53:36.920Z,98135.16
2023-05-04T01:56:03.539Z,98140.31
2023-05-04T01:58:30.492Z,98121.81
2023-05-04T02:00:59.273Z,98117.28
2023-05-04T02:03:27.294Z,98122.13
2023-05-04T02:05:53.837Z,98130.38
2023-05-04T02:08:20.340Z,98127.25
2023-05-04T02:10:47.627Z,98123.28
2023-05-04T02:13:14.140Z,98127.09
2023-05-04T02:15:40.790Z,98118.94
2023-05-04T02:18:07.294Z,98124.41
2023-05-04T02:20:33.969Z,98127.22
2023-05-04T02:23:00.706Z,98125.13
2023-05-04T02:25:27.223Z,98126.13
2023-05-04T02:27:53.663Z,98129.94
2023-05-04T02:30:20.434Z,98126.66
2023-05-04T02:32:46.995Z,98131.19
2023-05-04T02:35:15.026Z,98132.06
2023-05-04T02:37:41.504Z,98130.91
2023-05-04T02:40:08.480Z,98139.38
2023-05-04T02:42:34.971Z,98134.91
2023-05-04T02:45:01.435Z,98129.47
2023-05-04T02:47:27.960Z,98142.25
2023-05-04T02:49:54.406Z,98138.22
2023-05-04T02:52:20.934Z,98148.66
2023-05-04T02:54:47.440Z,98141.19
2023-05-04T02:57:13.939Z,98143.63
2023-05-04T02:59:40.380Z,98144.06
2023-05-04T03:02:06.947Z,98144.53
2023-05-04T03:04:33.546Z,98139.50
2023-05-04T03:07:00.035Z,98144.44
2023-05-04T03:09:26.484Z,98141.66
2023-05-04T03:11:52.939Z,98141.06
2023-05-04T03:14:19.438Z,98134.28
2023-05-04T03:16:45.999Z,98139.41
2023-05-04T03:19:12.533Z,98140.66
2023-05-04T03:21:39.118Z,98138.19
2023-05-04T03:24:05.776Z,98141.41
2023-05-04T03:26:32.850Z,98130.56
2023-05-04T03:28:59.359Z,98135.69
2023-05-04T03:31:26.169Z,98135.09
2023-05-04T03:33:53.649Z,98137.00
2023-05-04T03:36:21.612Z,98135.50
2023-05-04T03:38:48.789Z,98136.16
2023-05-04T03:41:16.317Z,98134.66
2023-05-04T03:43:42.836Z,98136.59
2023-05-04T03:46:10.324Z,98142.78
2023-05-04T03:48:36.877Z,98133.88
2023-05-04T03:51:06.365Z,98138.28
2023-05-04T03:53:35.615Z,98140.97
2023-05-04T03:56:02.717Z,98140.50
2023-05-04T03:58:30.224Z,98145.03
2023-05-04T04:01:01.059Z,98149.25
2023-05-04T04:03:27.950Z,98149.38
2023-05-04T04:05:54.905Z,98150.41
2023-05-04T04:08:21.444Z,98150.19
2023-05-04T04:10:48.144Z,98142.09
2023-05-04T04:13:14.705Z,98148.94
2023-05-04T04:15:44.772Z,98147.94
2023-05-04T04:18:11.542Z,98142.50
2023-05-04T04:20:38.069Z,98143.16
2023-05-04T04:23:04.490Z,98138.97
2023-05-04T04:25:31.584Z,98146.34
2023-05-04T04:27:58.045Z,98146.34
2023-05-04T04:30:24.519Z,98147.22
2023-05-04T04:32:51.161Z,98155.19
2023-05-04T04:35:17.648Z,98149.59
2023-05-04T04:37:44.265Z,98150.47
2023-05-04T04:40:11.179Z,98160.41
2023-05-04T04:42:37.633Z,98154.50
2023-05-04T04:45:07.217Z,98154.28
2023-05-04T04:47:34.009Z,98155.38
2023-05-04T04:50:00.490Z,98151.00
2023-05-04T04:52:26.970Z,98159.06
2023-05-04T04:54:53.464Z,98161.13
2023-05-04T04:57:20.090Z,98160.50
2023-05-04T04:59:47.200Z,98162.63
2023-05-04T05:02:13.711Z,98158.97
2023-05-04T05:04:43.040Z,98159.97
2023-05-04T05:07:10.435Z,98161.56
2023-05-04T05:09:37.518Z,98156.47
2023-05-04T05:12:04.668Z,98158.41
2023-05-04T05:14:35.111Z,98162.38
2023-05-04T05:17:04.010Z,98154.09
2023-05-04T05:19:30.768Z,98159.16
2023-05-04T05:21:57.425Z,98156.53
2023-05-04T05:24:23.905Z,98161.16
2023-05-04T05:29:45.749Z,98162.47
2023-05-04T05:32:12.253Z,98157.69
2023-05-04T05:34:39.077Z,98157.88
2023-05-04T05:37:05.990Z,98160.06
2023-05-04T05:39:32.454Z,98163.91
2023-05-04T05:41:59.290Z,98158.31
2023-05-04T05:44:25.798Z,98158.13
2023-05-04T05:46:52.290Z,98163.50
2023-05-04T05:49:18.769Z,98156.22
2023-05-04T05:51:45.195Z,98149.28
2023-05-04T05:54:12.129Z,98148.72
2023-05-04T05:56:38.595Z,98154.66
2023-05-04T05:59:05.180Z,98144.91
2023-05-04T06:01:31.921Z,98145.72
2023-05-04T06:03:58.652Z,98143.75
2023-05-04T06:06:25.488Z,98134.69
2023-05-04T06:08:52.228Z,98146.34
2023-05-04T06:11:18.685Z,98143.56
2023-05-04T06:13:45.212Z,98137.53
2023-05-04T06:16:11.754Z,98131.63
2023-05-04T06:18:38.246Z,98132.66
2023-05-04T06:21:04.946Z,98139.94
2023-05-04T06:23:31.679Z,98139.59
2023-05-04T06:25:58.579Z,98129.44
2023-05-04T06:28:25.172Z,98139.41
2023-05-04T06:30:51.759Z,98139.63
2023-05-04T06:33:18.281Z,98144.00
2023-05-04T06:35:45.423Z,98139.94
2023-05-04T06:38:12.103Z,98143.00
2023-05-04T06:40:38.665Z,98146.03
2023-05-04T06:43:05.369Z,98141.91
2023-05-04T06:45:33.786Z,98148.13
2023-05-04T06:48:00.394Z,98140.81
2023-05-04T06:50:27.646Z,98144.97
2023-05-04T06:53:01.921Z,98145.28
2023-05-04T06:55:28.444Z,98140.69
2023-05-04T06:57:54.885Z,98129.44
2023-05-04T07:00:21.431Z,98136.94
2023-05-04T07:02:47.932Z,98144.09
2023-05-04T07:05:14.585Z,98138.69
2023-05-04T07:07:41.152Z,98136.06
2023-05-04T07:10:08.520Z,98135.25
2023-05-04T07:12:35.088Z,98137.03
2023-05-04T07:15:01.579Z,98139.22
2023-05-04T07:17:28.130Z,98136.81
2023-05-04T07:19:54.684Z,98132.69
2023-05-04T07:22:21.213Z,98131.59
2023-05-04T07:24:47.982Z,98135.38
2023-05-04T07:27:14.549Z,98133.44
2023-05-04T07:29:41.646Z,98129.69
2023-05-04T07:32:08.213Z,98126.41
2023-05-04T07:34:44.909Z,98131.84
2023-05-04T07:37:12.221Z,98132.03
2023-05-04T07:39:38.989Z,98118.13
2023-05-04T07:42:06.204Z,98117.66
2023-05-04T07:44:32.674Z,98112.50
2023-05-04T07:46:59.517Z,98113.34
2023-05-04T07:49:26.183Z,98111.56
2023-05-04T07:51:52.817Z,98104.56
2023-05-04T07:54:21.338Z,98104.19
2023-05-04T07:56:49.027Z,98102.59
2023-05-04T07:59:17.638Z,98097.25
2023-05-04T08:01:46.616Z,98095.19
2023-05-04T08:04:13.188Z,98102.41
2023-05-04T08:06:40.260Z,98091.88
2023-05-04T08:09:06.799Z,98093.56
2023-05-04T08:11:34.730Z,98091.66
2023-05-04T08:14:01.251Z,98106.47
2023-05-04T08:16:29.315Z,98095.06
2023-05-04T08:18:56.370Z,98099.50
2023-05-04T08:21:22.977Z,98100.09
2023-05-04T08:23:49.864Z,98092.03
2023-05-04T08:26:16.304Z,98094.41
2023-05-04T08:28:42.895Z,98092.25
2023-05-04T08:31:09.465Z,98093.97
2023-05-04T08:33:35.951Z,98098.16
2023-05-04T08:36:03.432Z,98102.97
2023-05-04T08:38:30.131Z,98097.34
2023-05-04T08:40:57.534Z,98095.81
2023-05-04T08:43:24.152Z,98094.63
2023-05-04T08:45:51.163Z,98099.41
2023-05-04T08:48:17.657Z,98098.28
2023-05-04T08:50:44.351Z,98117.00
2023-05-04T08:53:12.188Z,98108.31
2023-05-04T08:55:39.473Z,98114.31
2023-05-04T08:58:07.988Z,98103.91
2023-05-04T09:00:34.622Z,98102.66
2023-05-04T09:03:03.576Z,98100.94
2023-05-04T09:05:30.420Z,98103.63
2023-05-04T09:07:57.905Z,98103.69
2023-05-04T09:10:26.896Z,98102.56
2023-05-04T09:12:57.733Z,98099.69
2023-05-04T09:15:24.515Z,98095.38
2023-05-04T09:17:58.075Z,98096.28
2023-05-04T09:20:25.930Z,98089.06
2023-05-04T09:23:08.001Z,98099.91
2023-05-04T09:25:35.070Z,98090.31
2023-05-04T09:28:01.558Z,98089.00
2023-05-04T09:30:28.016Z,98094.22
2023-05-04T09:32:55.202Z,98090.84
2023-05-04T09:35:33.586Z,98089.47
2023-05-04T09:38:01.190Z,98082.88
2023-05-04T09:40:32.597Z,98085.66
2023-05-04T09:42:59.818Z,98071.09
2023-05-04T09:45:26.359Z,98078.13
2023-05-04T09:47:54.206Z,98073.81
2023-05-04T09:50:26.634Z,98067.28
2023-05-04T09:52:53.489Z,98064.00
2023-05-04T09:55:20.429Z,98064.03
2023-05-04T09:57:48.169Z,98063.50
2023-05-04T10:00:18.618Z,98066.75
2023-05-04T10:02:46.521Z,98061.97
2023-05-04T10:05:14.987Z,98059.00
2023-05-04T10:07:42.715Z,98056.16
2023-05-04T10:10:10.214Z,98055.38
2023-05-04T10:12:36.751Z,98051.97
2023-05-04T10:15:06.009Z,98041.72
2023-05-04T10:17:35.874Z,98048.44
2023-05-04T10:20:17.568Z,98044.69
2023-05-04T10:22:44.137Z,98043.06
2023-05-04T10:25:14.474Z,98043.91
2023-05-04T10:27:48.969Z,98032.00
2023-05-04T10:30:16.648Z,98026.97
2023-05-04T10:32:43.335Z,98029.34
2023-05-04T10:35:10.441Z,98025.47
2023-05-04T10:37:40.096Z,98026.13
2023-05-04T10:40:08.185Z,98022.16
2023-05-04T10:42:42.402Z,98026.13
2023-05-04T10:45:09.668Z,98015.94
2023-05-04T10:47:38.090Z,98021.94
2023-05-04T10:50:06.435Z,98019.06
2023-05-04T10:52:33.458Z,98013.44
2023-05-04T10:55:01.304Z,98013.25
2023-05-04T10:57:29.103Z,98014.09
2023-05-04T10:59:57.216Z,98012.09
2023-05-04T11:02:24.280Z,98013.03
2023-05-04T11:05:01.067Z,98006.91
2023-05-04T11:07:36.660Z,98008.00
2023-05-04T11:10:04.408Z,98004.94
2023-05-04T11:12:31.881Z,98002.31
2023-05-04T11:15:08.199Z,98000.16
2023-05-04T11:17:35.180Z,97996.78
2023-05-04T11:20:01.818Z,97996.38
2023-05-04T11:22:28.362Z,97992.63
2023-05-04T11:24:56.251Z,97996.53
2023-05-04T11:27:23.916Z,97979.47
2023-05-04T11:29:54.201Z,97986.25
2023-05-04T11:32:20.730Z,97989.41
2023-05-04T11:34:47.256Z,97994.69
2023-05-04T11:37:13.893Z,97990.31
2023-05-04T11:39:40.461Z,97985.56
2023-05-04T11:42:09.718Z,97981.44
2023-05-04T11:44:37.125Z,97978.53
2023-05-04T11:47:03.816Z,97978.06
2023-05-04T11:49:31.161Z,97978.34
2023-05-04T11:52:07.775Z,97977.25
2023-05-04T11:54:34.319Z,97974.69
2023-05-04T11:57:04.044Z,97969.69
2023-05-04T11:59:30.879Z,97972.81
2023-05-04T12:01:57.482Z,97969.41
2023-05-04T12:04:24.719Z,97972.84
2023-05-04T12:06:51.403Z,97966.34
2023-05-04T12:09:17.925Z,97963.97
2023-05-04T12:11:53.304Z,97964.63
2023-05-04T12:14:20.747Z,97949.97
2023-05-04T12:16:55.636Z,97957.22
2023-05-04T12:19:22.244Z,97962.94
2023-05-04T12:21:53.214Z,97958.34
2023-05-04T12:24:21.767Z,97945.78
2023-05-04T12:26:48.296Z,97956.72
2023-05-04T12:29:14.941Z,97956.84
2023-05-04T12:31:41.580Z,97956.00
2023-05-04T12:34:08.172Z,97942.31
2023-05-04T12:36:34.926Z,97951.81
2023-05-04T12:39:01.901Z,97942.25
2023-05-04T12:41:28.413Z,97943.25
2023-05-04T12:43:54.956Z,97939.75
2023-05-04T12:46:22.582Z,97935.53
2023-05-04T12:48:49.441Z,97939.53
2023-05-04T12:51:16.082Z,97935.72
2023-05-04T12:53:43.668Z,97935.00
2023-05-04T12:56:10.223Z,97931.19
2023-05-04T12:58:36.755Z,97926.44
2023-05-04T13:01:03.399Z,97918.50
2023-05-04T13:03:29.993Z,97910.03
2023-05-04T13:05:57.432Z,97909.09
2023-05-04T13:08:23.928Z,97914.09
2023-05-04T13:10:50.772Z,97915.63
2023-05-04T13:13:18.124Z,97911.75
2023-05-04T13:15:45.034Z,97909.28
2023-05-04T13:18:12.656Z,97893.50
2023-05-04T13:20:39.668Z,97893.25
2023-05-04T13:23:06.184Z,97892.34
2023-05-04T13:25:32.849Z,97887.78
2023-05-04T13:27:59.282Z,97881.47
2023-05-04T13:30:25.995Z,97890.34
2023-05-04T13:32:52.570Z,97888.28
2023-05-04T13:35:19.188Z,97888.34
2023-05-04T13:37:45.744Z,97877.53
2023-05-04T13:40:12.535Z,97875.53
2023-05-04T13:42:39.387Z,97866.69
2023-05-04T13:45:06.533Z,97869.25
2023-05-04T13:47:33.946Z,97865.78
2023-05-04T13:50:00.488Z,97866.69
2023-05-04T13:52:27.128Z,97861.13
2023-05-04T13:54:53.815Z,97859.56
2023-05-04T13:57:20.363Z,97843.53
2023-05-04T13:59:58.638Z,97848.47
2023-05-04T14:02:37.129Z,97848.66
2023-05-04T14:05:04.159Z,97842.13
2023-05-04T14:07:30.862Z,97850.16
2023-05-04T14:09:58.561Z,97844.50
2023-05-04T14:12:24.987Z,97841.44
2023-05-04T14:14:51.585Z,97837.91
2023-05-04T14:17:18.301Z,97835.41
2023-05-04T14:19:45.011Z,97837.31
2023-05-04T14:22:11.507Z,97847.44
2023-05-04T14:24:38.112Z,97841.22
2023-05-04T14:27:04.540Z,97843.19
2023-05-04T14:29:32.296Z,97842.56
2023-05-04T14:31:58.903Z,97841.22
2023-05-04T14:34:25.507Z,97839.53
2023-05-04T14:36:53.097Z,97832.97
2023-05-04T14:39:19.749Z,97834.63
2023-05-04T14:41:46.258Z,97826.53
2023-05-04T14:44:12.845Z,97829.09
2023-05-04T14:46:39.317Z,97830.50
2023-05-04T14:49:07.241Z,97824.88
2023-05-04T14:51:33.878Z,97830.53
2023-05-04T14:54:00.734Z,97822.47
2023-05-04T14:56:27.419Z,97825.41
2023-05-04T14:58:53.891Z,97826.69
2023-05-04T15:01:20.713Z,97829.13
2023-05-04T15:03:48.021Z,97828.72
2023-05-04T15:06:14.606Z,97830.75
2023-05-04T15:08:41.077Z,97825.78
2023-05-04T15:11:07.538Z,97827.00
2023-05-04T15:13:34.028Z,97827.22
2023-05-04T15:16:00.572Z,97810.84
2023-05-04T15:18:27.136Z,97815.66
2023-05-04T15:20:53.640Z,97823.00
2023-05-04T15:23:20.166Z,97816.66
2023-05-04T15:25:46.750Z,97814.88
2023-05-04T15:28:13.338Z,97818.22
2023-05-04T15:30:40.567Z,97814.91
2023-05-04T15:33:07.406Z,97806.41
2023-05-04T15:35:35.352Z,97812.88
2023-05-04T15:38:02.237Z,97807.63
2023-05-04T15:40:28.945Z,97806.72
2023-05-04T15:42:55.453Z,97804.22
2023-05-04T15:45:22.281Z,97799.34
2023-05-04T15:47:49.189Z,97805.28
2023-05-04T15:50:15.795Z,97805.44
2023-05-04T15:52:42.349Z,97799.41
2023-05-04T15:55:23.695Z,97797.00
2023-05-04T15:57:52.524Z,97791.13
2023-05-04T16:00:19.353Z,97798.31
2023-05-04T16:02:45.937Z,97795.06
2023-05-04T16:05:12.533Z,97788.97
2023-05-04T16:07:39.086Z,97797.53
2023-05-04T16:10:06.263Z,97799.00
2023-05-04T16:12:32.911Z,97792.91
2023-05-04T16:14:59.418Z,97792.06
2023-05-04T16:17:26.171Z,97793.56
2023-05-04T16:19:52.737Z,97787.09
2023-05-04T16:22:19.282Z,97790.34
2023-05-04T16:24:46.602Z,97781.06
2023-05-04T16:27:13.072Z,97779.97
2023-05-04T16:29:39.523Z,97784.19
2023-05-04T16:32:05.966Z,97786.28
2023-05-04T16:34:32.657Z,97790.28
2023-05-04T16:36:59.153Z,97782.28
2023-05-04T16:39:34.109Z,97793.84
2023-05-04T16:42:01.754Z,97787.97
2023-05-04T16:44:29.501Z,97790.88
2023-05-04T16:46:55.986Z,97792.59
2023-05-04T16:49:22.502Z,97791.31
2023-05-04T16:51:49.118Z,97797.78
2023-05-04T16:54:16.157Z,97795.28
2023-05-04T16:56:42.638Z,97805.59
2023-05-04T16:59:09.148Z,97808.97
2023-05-04T17:01:35.851Z,97802.00
2023-05-04T17:04:02.469Z,97800.91
2023-05-04T17:06:29.469Z,97803.03
2023-05-04T17:08:55.977Z,97807.63
2023-05-04T17:11:23.860Z,97816.03
2023-05-04T17:13:51.054Z,97810.53
2023-05-04T17:16:17.801Z,97814.59
2023-05-04T17:18:45.705Z,97818.72
2023-05-04T17:21:12.426Z,97814.53
2023-05-04T17:23:39.025Z,97814.53
2023-05-04T17:26:05.896Z,97814.03
2023-05-04T17:28:32.441Z,97818.00
2023-05-04T17:30:58.962Z,97820.63
2023-05-04T17:33:25.490Z,97823.28
2023-05-04T17:35:52.115Z,97826.09
2023-05-04T17:38:18.612Z,97830.97
2023-05-04T17:40:45.152Z,97830.44
2023-05-04T17:43:11.587Z,97834.19
2023-05-04T17:45:38.065Z,97828.91
2023-05-04T17:48:04.705Z,97827.72
2023-05-04T17:50:31.322Z,97830.84
2023-05-04T17:52:57.867Z,97833.69
2023-05-04T17:55:24.783Z,97840.72
2023-05-04T17:57:52.440Z,97841.09
2023-05-04T18:00:19.083Z,97836.72
2023-05-04T18:02:45.604Z,97842.69
2023-05-04T18:05:12.573Z,97845.41
2023-05-04T18:07:39.628Z,97846.28
2023-05-04T18:10:06.709Z,97854.56
2023-05-04T18:12:34.891Z,97853.91
2023-05-04T18:15:02.064Z,97859.75
2023-05-04T18:17:29.387Z,97860.16
2023-05-04T18:19:56.561Z,97867.16
2023-05-04T18:22:23.016Z,97866.19
2023-05-04T18:24:49.589Z,97864.66
2023-05-04T18:27:16.373Z,97873.88
2023-05-04T18:29:43.017Z,97882.28
2023-05-04T18:32:10.746Z,97885.50
2023-05-04T18:34:37.750Z,97892.25
2023-05-04T18:37:04.230Z,97900.97
2023-05-04T18:39:31.358Z,97898.75
2023-05-04T18:41:59.275Z,97909.84
2023-05-04T18:44:25.723Z,97912.34
2023-05-04T18:46:52.336Z,97910.31
2023-05-04T18:49:18.789Z,97904.28
2023-05-04T18:51:45.492Z,97914.31
2023-05-04T18:54:11.925Z,97919.16
2023-05-04T18:56:38.377Z,97912.78
2023-05-04T18:59:06.060Z,97925.75
2023-05-04T19:01:32.935Z,97919.16
2023-05-04T19:03:59.499Z,97926.50
2023-05-04T19:06:26.016Z,97929.09
2023-05-04T19:08:52.565Z,97932.50
2023-05-04T19:11:19.053Z,97939.03
2023-05-04T19:13:45.518Z,97940.41
2023-05-04T19:16:12.496Z,97942.50
2023-05-04T19:18:39.300Z,97941.50
2023-05-04T19:21:06.349Z,97954.25
2023-05-04T19:23:32.853Z,97951.72
2023-05-04T19:25:59.318Z,97955.81
2023-05-04T19:28:25.843Z,97944.66
2023-05-04T19:30:53.967Z,97951.47
2023-05-04T19:33:20.691Z,97951.78
2023-05-04T19:35:47.588Z,97950.94
2023-05-04T19:38:14.041Z,97957.53
2023-05-04T19:40:42.714Z,97953.66
2023-05-04T19:43:09.449Z,97958.25
2023-05-04T19:45:36.145Z,97958.25
2023-05-04T19:48:03.461Z,97957.56
2023-05-04T19:50:30.200Z,97956.91
2023-05-04T19:52:56.802Z,97958.41
2023-05-04T19:55:23.319Z,97959.97
2023-05-04T19:57:50.051Z,97962.63
2023-05-04T20:00:19.255Z,97970.41
2023-05-04T20:02:46.600Z,97966.84
2023-05-04T20:05:13.685Z,97966.31
2023-05-04T20:07:40.166Z,97974.28
2023-05-04T20:10:07.082Z,97971.06
2023-05-04T20:12:33.883Z,97970.91
2023-05-04T20:15:00.440Z,97966.84
2023-05-04T20:17:27.462Z,97969.69
2023-05-04T20:19:53.993Z,97973.75
2023-05-04T20:22:20.539Z,97970.13
2023-05-04T20:24:47.055Z,97977.78
2023-05-04T20:27:13.672Z,97974.38
2023-05-04T20:29:40.152Z,97985.97
2023-05-04T20:32:07.278Z,97998.91
2023-05-04T20:34:33.969Z,97997.94
2023-05-04T20:37:00.494Z,97996.63
2023-05-04T20:39:26.953Z,97998.63
2023-05-04T20:41:53.403Z,98007.00
2023-05-04T20:44:19.843Z,97998.75
2023-05-04T20:46:46.376Z,97996.59
2023-05-04T20:49:13.375Z,97991.81
2023-05-04T20:51:39.904Z,97996.59
2023-05-04T20:54:06.362Z,97997.44
2023-05-04T20:56:32.808Z,97995.72
2023-05-04T20:58:59.337Z,97993.47
2023-05-04T21:01:25.924Z,97991.28
2023-05-04T21:03:52.593Z,97987.34
2023-05-04T21:06:19.287Z,97978.44
2023-05-04T21:08:45.780Z,97984.50
2023-05-04T21:11:12.217Z,97981.72
2023-05-04T21:13:38.652Z,97977.28
2023-05-04T21:16:05.364Z,97978.66
2023-05-04T21:18:31.913Z,97981.41
2023-05-04T21:20:58.413Z,97980.56
2023-05-04T21:23:25.093Z,97977.88
2023-05-04T21:25:59.280Z,97972.38
2023-05-04T21:28:25.884Z,97975.16
2023-05-04T21:30:52.490Z,97976.16
2023-05-04T21:33:18.939Z,97966.50
2023-05-04T21:35:45.399Z,97970.38
2023-05-04T21:38:12.801Z,97972.06
2023-05-04T21:40:39.300Z,97965.56
2023-05-04T21:43:05.854Z,97971.22
2023-05-04T21:45:32.548Z,97966.31
2023-05-04T21:47:59.151Z,97973.44
2023-05-04T21:50:26.321Z,97970.13
2023-05-04T21:52:52.793Z,97975.06
2023-05-04T21:55:19.656Z,97971.28
2023-05-04T21:57:46.145Z,97977.75
2023-05-04T22:00:14.791Z,97981.25
2023-05-04T22:02:41.356Z,97975.59
2023-05-04T22:05:09.680Z,97972.06
2023-05-04T22:07:36.707Z,97973.81
2023-05-04T22:10:04.489Z,97969.81
2023-05-04T22:12:30.974Z,97966.28
2023-05-04T22:14:57.602Z,97978.06
2023-05-04T22:17:24.053Z,97972.28
2023-05-04T22:19:50.579Z,97976.44
2023-05-04T22:22:17.041Z,97969.44
2023-05-04T22:24:43.564Z,97972.28
2023-05-04T22:27:10.148Z,97972.56
2023-05-04T22:29:36.691Z,97973.94
2023-05-04T22:32:03.201Z,97972.00
2023-05-04T22:34:29.670Z,97970.34
2023-05-04T22:36:56.149Z,97972.56
2023-05-04T22:39:22.798Z,97964.56
2023-05-04T22:41:49.256Z,97970.16
2023-05-04T22:44:15.877Z,97968.59
2023-05-04T22:46:42.431Z,97967.16
2023-05-04T22:49:09.005Z,97964.66
2023-05-04T22:51:35.546Z,97965.38
2023-05-04T22:54:02.002Z,97962.19
2023-05-04T22:56:28.565Z,97959.97
2023-05-04T22:58:55.009Z,97964.56
2023-05-04T23:01:21.945Z,97972.22
2023-05-04T23:03:49.057Z,97972.47
2023-05-04T23:06:15.731Z,97966.25
2023-05-04T23:08:42.341Z,97964.03
2023-05-04T23:11:08.818Z,97967.16
2023-05-04T23:13:35.599Z,97960.16
2023-05-04T23:16:03.604Z,97949.28
2023-05-04T23:18:32.989Z,97961.13
2023-05-04T23:20:59.574Z,97957.25
2023-05-04T23:23:25.982Z,97954.69
2023-05-04T23:25:52.448Z,97956.06
2023-05-04T23:28:18.925Z,97952.53
2023-05-04T23:30:45.406Z,97954.69
2023-05-04T23:33:11.893Z,97951.84
2023-05-04T23:35:38.422Z,97953.84
2023-05-04T23:38:04.925Z,97943.06
2023-05-04T23:40:31.599Z,97943.97
2023-05-04T23:42:58.028Z,97955.94
2023-05-04T23:45:24.516Z,97944.25
2023-05-04T23:47:51.055Z,97938.28
2023-05-04T23:50:18.030Z,97940.56
2023-05-04T23:52:44.714Z,97938.91
2023-05-04T23:55:11.211Z,97935.56
2023-05-04T23:57:37.683Z,97934.06
